createdAt,value
2022-08-05T00:02:23.575Z,0
2022-08-05T00:07:59.604Z,0
2022-08-05T00:12:23.584Z,0
2022-08-05T00:27:28.364Z,0
2022-08-05T00:32:32.082Z,0
2022-08-05T00:37:27.634Z,0
2022-08-05T00:42:31.425Z,0
2022-08-05T00:47:23.669Z,0
2022-08-05T00:52:28.484Z,0
2022-08-05T00:57:31.590Z,0
2022-08-05T01:02:26.547Z,0
2022-08-05T01:07:31.586Z,0
2022-08-05T01:12:23.569Z,0
2022-08-05T01:17:23.757Z,0
2022-08-05T01:22:27.716Z,0
2022-08-05T01:27:23.673Z,0
2022-08-05T01:32:23.612Z,0
2022-08-05T01:37:27.049Z,0
2022-08-05T01:42:23.597Z,0
2022-08-05T01:47:23.848Z,0
2022-08-05T01:52:23.620Z,0
2022-08-05T01:58:08.753Z,0
2022-08-05T02:02:28.552Z,0
2022-08-05T02:07:23.765Z,0
2022-08-05T02:12:26.602Z,0
2022-08-05T02:17:30.058Z,0
2022-08-05T02:22:27.241Z,0
2022-08-05T02:27:29.822Z,0
2022-08-05T02:32:29.293Z,0
2022-08-05T02:37:23.891Z,0
2022-08-05T02:42:27.395Z,0
2022-08-05T02:47:23.818Z,0
2022-08-05T02:52:30.317Z,0
2022-08-05T02:58:09.505Z,0
2022-08-05T03:02:23.645Z,0
2022-08-05T03:07:40.856Z,0
2022-08-05T03:12:23.632Z,0
2022-08-05T03:17:24.886Z,0
2022-08-05T03:22:31.856Z,0
2022-08-05T03:27:29.716Z,0
2022-08-05T03:32:28.705Z,0
2022-08-05T03:37:23.902Z,0
2022-08-05T03:42:27.135Z,0
2022-08-05T03:47:24.336Z,0
2022-08-05T03:52:36.410Z,0
2022-08-05T03:57:29.174Z,0
2022-08-05T04:02:38.127Z,0
2022-08-05T04:07:26.718Z,0
2022-08-05T04:12:26.747Z,0
2022-08-05T04:17:23.792Z,265
2022-08-05T04:22:26.669Z,265
2022-08-05T04:27:33.402Z,266
2022-08-05T04:32:30.892Z,267
2022-08-05T04:38:00.841Z,269
2022-08-05T04:42:26.733Z,268
2022-08-05T04:47:25.103Z,272
2022-08-05T04:52:27.327Z,276
2022-08-05T04:57:28.446Z,279
2022-08-05T05:02:35.997Z,278
2022-08-05T05:07:29.327Z,276
2022-08-05T05:12:28.544Z,275
2022-08-05T05:17:56.135Z,279
2022-08-05T05:22:27.015Z,280
2022-08-05T05:27:24.917Z,278
2022-08-05T05:32:23.686Z,279
2022-08-05T05:42:24.707Z,285
2022-08-05T05:47:30.376Z,296
2022-08-05T05:52:28.482Z,292
2022-08-05T05:57:23.928Z,278
2022-08-05T06:02:32.786Z,288
2022-08-05T06:07:41.470Z,290
2022-08-05T06:12:27.105Z,299
2022-08-05T06:17:30.823Z,322
2022-08-05T06:22:26.920Z,331
2022-08-05T06:28:09.940Z,336
2022-08-05T06:32:29.028Z,341
2022-08-05T06:37:57.102Z,327
2022-08-05T06:42:26.739Z,312
2022-08-05T06:48:12.223Z,298
2022-08-05T06:52:36.453Z,291
2022-08-05T06:57:58.278Z,317
2022-08-05T07:02:23.705Z,323
2022-08-05T07:07:35.690Z,327
2022-08-05T07:12:23.720Z,313
2022-08-05T07:17:57.608Z,318
2022-08-05T07:22:27.949Z,315
2022-08-05T07:32:26.718Z,327
2022-08-05T07:37:29.040Z,319
2022-08-05T07:42:31.616Z,322
2022-08-05T07:47:26.736Z,325
2022-08-05T07:52:26.755Z,330
2022-08-05T07:57:50.513Z,341
2022-08-05T08:02:31.095Z,349
2022-08-05T08:07:25.027Z,376
2022-08-05T08:12:39.630Z,401
2022-08-05T08:17:23.944Z,412
2022-08-05T08:22:26.892Z,397
2022-08-05T08:27:35.640Z,328
2022-08-05T08:32:27.961Z,354
2022-08-05T08:37:27.727Z,393
2022-08-05T08:42:33.994Z,373
2022-08-05T08:47:47.934Z,362
2022-08-05T08:52:25.197Z,371
2022-08-05T08:57:29.274Z,390
2022-08-05T09:02:27.097Z,612
2022-08-05T09:07:28.736Z,375
2022-08-05T09:12:30.094Z,481
2022-08-05T09:17:41.458Z,401
2022-08-05T09:22:31.403Z,1439
2022-08-05T09:28:03.435Z,442
2022-08-05T09:32:40.586Z,442
2022-08-05T09:38:13.234Z,1608
2022-08-05T09:42:27.875Z,850
2022-08-05T09:47:23.809Z,1278
2022-08-05T09:52:26.970Z,391
2022-08-05T09:57:24.806Z,343
2022-08-05T10:02:27.212Z,1576
2022-08-05T10:07:59.420Z,1707
2022-08-05T10:12:30.895Z,1411
2022-08-05T10:17:37.097Z,1137
2022-08-05T10:22:29.625Z,1686
2022-08-05T10:28:09.205Z,1555
2022-08-05T10:32:50.422Z,1656
2022-08-05T10:37:27.044Z,1630
2022-08-05T10:42:32.672Z,1442
2022-08-05T10:47:44.051Z,1610
2022-08-05T10:52:30.407Z,1619
2022-08-05T10:57:23.798Z,1377
2022-08-05T11:02:35.033Z,1706
2022-08-05T11:07:32.686Z,1695
2022-08-05T11:12:24.322Z,1643
2022-08-05T11:17:58.554Z,1107
2022-08-05T11:22:23.826Z,388
2022-08-05T11:27:24.036Z,394
2022-08-05T11:32:26.907Z,379
2022-08-05T11:38:36.117Z,364
2022-08-05T11:42:27.897Z,381
2022-08-05T11:47:48.419Z,370
2022-08-05T11:52:28.972Z,392
2022-08-05T12:02:29.975Z,364
2022-08-05T12:08:02.888Z,373
2022-08-05T12:12:29.157Z,374
2022-08-05T12:17:36.179Z,363
2022-08-05T12:22:23.895Z,345
2022-08-05T12:27:32.451Z,330
2022-08-05T12:32:26.835Z,322
2022-08-05T12:37:29.912Z,310
2022-08-05T12:42:28.226Z,306
2022-08-05T12:47:27.347Z,311
2022-08-05T12:52:29.762Z,316
2022-08-05T12:57:28.339Z,308
2022-08-05T13:02:27.199Z,309
2022-08-05T13:07:56.392Z,305
2022-08-05T13:12:28.477Z,303
2022-08-05T13:17:31.793Z,303
2022-08-05T13:22:29.909Z,301
2022-08-05T13:27:37.830Z,302
2022-08-05T13:32:29.200Z,302
2022-08-05T13:37:27.124Z,300
2022-08-05T13:42:26.884Z,299
2022-08-05T13:47:28.211Z,287
2022-08-05T13:52:29.289Z,295
2022-08-05T13:57:25.154Z,316
2022-08-05T14:02:29.638Z,310
2022-08-05T14:07:56.770Z,318
2022-08-05T14:12:32.401Z,317
2022-08-05T14:17:24.013Z,317
2022-08-05T14:22:30.225Z,317
2022-08-05T14:27:28.314Z,321
2022-08-05T14:32:28.069Z,317
2022-08-05T14:37:44.796Z,304
2022-08-05T14:42:26.978Z,297
2022-08-05T14:47:58.680Z,302
2022-08-05T14:52:51.497Z,302
2022-08-05T14:57:33.976Z,294
2022-08-05T15:02:23.946Z,290
2022-08-05T15:08:06.817Z,293
2022-08-05T15:12:27.770Z,295
2022-08-05T15:17:45.248Z,297
2022-08-05T15:22:28.248Z,288
2022-08-05T15:27:31.960Z,297
2022-08-05T15:32:28.827Z,308
2022-08-05T15:38:09.378Z,299
2022-08-05T15:42:49.848Z,304
2022-08-05T15:47:24.164Z,298
2022-08-05T15:52:29.738Z,307
2022-08-05T15:57:25.108Z,308
2022-08-05T16:02:27.806Z,290
2022-08-05T16:07:24.132Z,291
2022-08-05T16:12:24.054Z,292
2022-08-05T16:17:26.963Z,290
2022-08-05T16:22:27.668Z,278
2022-08-05T16:27:31.969Z,276
2022-08-05T16:32:28.488Z,281
2022-08-05T16:38:03.990Z,287
2022-08-05T16:42:27.487Z,280
2022-08-05T16:47:29.186Z,288
2022-08-05T16:57:30.120Z,284
2022-08-05T17:02:27.309Z,281
2022-08-05T17:07:39.410Z,284
2022-08-05T17:12:50.734Z,284
2022-08-05T17:17:27.333Z,279
2022-08-05T17:22:28.161Z,281
2022-08-05T17:27:27.129Z,278
2022-08-05T17:32:27.314Z,275
2022-08-05T17:37:39.981Z,275
2022-08-05T17:42:30.270Z,273
2022-08-05T17:47:24.019Z,272
2022-08-05T17:52:27.249Z,271
2022-08-05T17:57:25.029Z,269
2022-08-05T18:02:24.414Z,266
2022-08-05T18:07:25.105Z,266
2022-08-05T18:12:25.157Z,265
2022-08-05T18:17:58.514Z,0
2022-08-05T18:22:26.110Z,0
2022-08-05T18:27:23.998Z,0
2022-08-05T18:32:27.939Z,0
2022-08-05T18:37:33.343Z,0
2022-08-05T18:42:27.442Z,0
2022-08-05T18:47:27.106Z,0
2022-08-05T18:52:32.829Z,0
2022-08-05T18:57:25.564Z,0
2022-08-05T19:02:28.396Z,0
2022-08-05T19:07:25.075Z,0
2022-08-05T19:12:27.493Z,0
2022-08-05T19:17:28.570Z,0
2022-08-05T19:27:24.370Z,0
2022-08-05T19:32:27.696Z,0
2022-08-05T19:37:29.657Z,0
2022-08-05T19:42:35.225Z,0
2022-08-05T19:47:27.115Z,0
2022-08-05T19:52:30.535Z,0
2022-08-05T19:57:46.679Z,0
2022-08-05T20:02:27.495Z,0
2022-08-05T20:07:47.587Z,0
2022-08-05T20:12:25.340Z,0
2022-08-05T20:17:25.038Z,0
2022-08-05T20:22:27.613Z,0
2022-08-05T20:27:27.367Z,0
2022-08-05T20:32:25.188Z,0
2022-08-05T20:38:05.223Z,0
2022-08-05T20:42:27.294Z,0
2022-08-05T20:47:31.063Z,0
2022-08-05T20:55:00.154Z,0
2022-08-05T20:57:42.489Z,0
2022-08-05T21:02:27.096Z,0
2022-08-05T21:07:24.133Z,0
2022-08-05T21:12:27.549Z,0
2022-08-05T21:17:24.100Z,0
2022-08-05T21:22:26.399Z,0
2022-08-05T21:27:27.327Z,0
2022-08-05T21:32:26.876Z,0
2022-08-05T21:37:24.087Z,0
2022-08-05T21:42:30.844Z,0
2022-08-05T21:47:55.881Z,0
2022-08-05T21:57:31.079Z,0
2022-08-05T22:02:24.239Z,0
2022-08-05T22:07:39.667Z,0
2022-08-05T22:12:27.368Z,0
2022-08-05T22:17:24.122Z,0
2022-08-05T22:22:28.777Z,0
2022-08-05T22:27:25.113Z,0
2022-08-05T22:32:28.322Z,0
2022-08-05T22:37:31.394Z,0
2022-08-05T22:42:27.606Z,0
2022-08-05T22:47:28.868Z,0
2022-08-05T22:52:45.114Z,0
2022-08-05T22:57:24.051Z,0
2022-08-05T23:02:29.163Z,0
2022-08-05T23:07:24.118Z,0
2022-08-05T23:12:25.368Z,0
2022-08-05T23:17:32.604Z,0
2022-08-05T23:22:27.792Z,0
2022-08-05T23:27:28.998Z,0
2022-08-05T23:32:24.480Z,0
2022-08-05T23:37:27.110Z,0
2022-08-05T23:42:29.144Z,0
2022-08-05T23:52:49.631Z,0
2022-08-05T23:57:28.136Z,0
